sensor_id;sensor_type;location;lat;lon;timestamp;temperature;humidity
17385;DHT22;8810;48.680;8.894;2022-10-17T00:00:15;12.10;99.90
17385;DHT22;8810;48.680;8.894;2022-10-17T00:02:41;12.20;99.90
17385;DHT22;8810;48.680;8.894;2022-10-17T00:05:08;12.20;99.90
17385;DHT22;8810;48.680;8.894;2022-10-17T00:07:36;12.20;99.90
17385;DHT22;8810;48.680;8.894;2022-10-17T00:10:04;12.20;99.90
17385;DHT22;8810;48.680;8.894;2022-10-17T00:12:31;12.20;99.90
17385;DHT22;8810;48.680;8.894;2022-10-17T00:14:59;12.20;99.90
17385;DHT22;8810;48.680;8.894;2022-10-17T00:17:27;12.20;99.90
17385;DHT22;8810;48.680;8.894;2022-10-17T00:19:54;12.30;99.90
17385;DHT22;8810;48.680;8.894;2022-10-17T00:22:21;12.20;99.90
17385;DHT22;8810;48.680;8.894;2022-10-17T00:24:48;12.20;99.90
17385;DHT22;8810;48.680;8.894;2022-10-17T00:27:15;12.20;99.90
17385;DHT22;8810;48.680;8.894;2022-10-17T00:29:41;12.10;99.90
17385;DHT22;8810;48.680;8.894;2022-10-17T00:32:10;12.10;99.90
17385;DHT22;8810;48.680;8.894;2022-10-17T00:34:36;12.10;99.90
17385;DHT22;8810;48.680;8.894;2022-10-17T00:37:03;12.00;99.90
17385;DHT22;8810;48.680;8.894;2022-10-17T00:39:30;12.00;99.90
17385;DHT22;8810;48.680;8.894;2022-10-17T00:41:57;11.90;99.90
17385;DHT22;8810;48.680;8.894;2022-10-17T00:45:04;11.90;99.90
17385;DHT22;8810;48.680;8.894;2022-10-17T00:47:34;11.90;99.90
17385;DHT22;8810;48.680;8.894;2022-10-17T00:50:03;11.80;99.90
17385;DHT22;8810;48.680;8.894;2022-10-17T00:52:31;11.80;99.90
17385;DHT22;8810;48.680;8.894;2022-10-17T00:55:01;11.70;99.90
17385;DHT22;8810;48.680;8.894;2022-10-17T00:57:30;11.70;99.90
17385;DHT22;8810;48.680;8.894;2022-10-17T00:59:58;11.70;99.90
17385;DHT22;8810;48.680;8.894;2022-10-17T01:02:30;11.70;99.90
17385;DHT22;8810;48.680;8.894;2022-10-17T01:04:58;11.70;99.90
17385;DHT22;8810;48.680;8.894;2022-10-17T01:07:26;11.60;99.90
17385;DHT22;8810;48.680;8.894;2022-10-17T01:09:54;11.60;99.90
17385;DHT22;8810;48.680;8.894;2022-10-17T01:12:23;11.60;99.90
17385;DHT22;8810;48.680;8.894;2022-10-17T01:15:04;11.60;99.90
17385;DHT22;8810;48.680;8.894;2022-10-17T01:17:43;11.60;99.90
17385;DHT22;8810;48.680;8.894;2022-10-17T01:20:36;11.50;99.90
17385;DHT22;8810;48.680;8.894;2022-10-17T01:23:26;11.50;99.90
17385;DHT22;8810;48.680;8.894;2022-10-17T01:26:02;11.50;99.90
17385;DHT22;8810;48.680;8.894;2022-10-17T01:28:54;11.40;99.90
17385;DHT22;8810;48.680;8.894;2022-10-17T01:31:31;11.40;99.90
17385;DHT22;8810;48.680;8.894;2022-10-17T01:34:06;11.40;99.90
17385;DHT22;8810;48.680;8.894;2022-10-17T01:36:40;11.30;99.90
17385;DHT22;8810;48.680;8.894;2022-10-17T01:39:16;11.30;99.90
17385;DHT22;8810;48.680;8.894;2022-10-17T01:41:50;11.20;99.90
17385;DHT22;8810;48.680;8.894;2022-10-17T01:44:20;11.20;99.90
17385;DHT22;8810;48.680;8.894;2022-10-17T01:46:53;11.20;99.90
17385;DHT22;8810;48.680;8.894;2022-10-17T01:49:25;11.20;99.90
17385;DHT22;8810;48.680;8.894;2022-10-17T01:51:57;11.20;99.90
17385;DHT22;8810;48.680;8.894;2022-10-17T01:54:30;11.20;99.90
17385;DHT22;8810;48.680;8.894;2022-10-17T01:57:01;11.20;99.90
17385;DHT22;8810;48.680;8.894;2022-10-17T01:59:33;11.20;99.90
17385;DHT22;8810;48.680;8.894;2022-10-17T02:02:05;11.10;99.90
17385;DHT22;8810;48.680;8.894;2022-10-17T02:04:33;11.10;99.90
17385;DHT22;8810;48.680;8.894;2022-10-17T02:07:05;11.00;99.90
17385;DHT22;8810;48.680;8.894;2022-10-17T02:09:32;11.00;99.90
17385;DHT22;8810;48.680;8.894;2022-10-17T02:12:13;11.00;99.90
17385;DHT22;8810;48.680;8.894;2022-10-17T02:14:52;11.00;99.90
17385;DHT22;8810;48.680;8.894;2022-10-17T02:17:33;11.00;99.90
17385;DHT22;8810;48.680;8.894;2022-10-17T02:20:12;11.00;99.90
17385;DHT22;8810;48.680;8.894;2022-10-17T02:22:46;11.00;99.90
17385;DHT22;8810;48.680;8.894;2022-10-17T02:25:22;11.00;99.90
17385;DHT22;8810;48.680;8.894;2022-10-17T02:27:52;11.00;99.90
17385;DHT22;8810;48.680;8.894;2022-10-17T02:30:28;11.00;99.90
17385;DHT22;8810;48.680;8.894;2022-10-17T02:33:00;10.90;99.90
17385;DHT22;8810;48.680;8.894;2022-10-17T02:35:30;10.90;99.90
17385;DHT22;8810;48.680;8.894;2022-10-17T02:37:58;10.90;99.90
17385;DHT22;8810;48.680;8.894;2022-10-17T02:40:28;10.90;99.90
17385;DHT22;8810;48.680;8.894;2022-10-17T02:42:58;10.80;99.90
17385;DHT22;8810;48.680;8.894;2022-10-17T02:45:27;10.80;99.90
17385;DHT22;8810;48.680;8.894;2022-10-17T02:47:59;10.80;99.90
17385;DHT22;8810;48.680;8.894;2022-10-17T02:50:39;10.80;99.90
17385;DHT22;8810;48.680;8.894;2022-10-17T02:53:13;10.80;99.90
17385;DHT22;8810;48.680;8.894;2022-10-17T02:55:45;10.70;99.90
17385;DHT22;8810;48.680;8.894;2022-10-17T02:58:18;10.70;99.90
17385;DHT22;8810;48.680;8.894;2022-10-17T03:00:45;10.60;99.90
17385;DHT22;8810;48.680;8.894;2022-10-17T03:03:22;10.60;99.90
17385;DHT22;8810;48.680;8.894;2022-10-17T03:05:49;10.60;99.90
17385;DHT22;8810;48.680;8.894;2022-10-17T03:08:16;10.60;99.90
17385;DHT22;8810;48.680;8.894;2022-10-17T03:10:43;10.50;99.90
17385;DHT22;8810;48.680;8.894;2022-10-17T03:13:10;10.50;99.90
17385;DHT22;8810;48.680;8.894;2022-10-17T03:15:37;10.50;99.90
17385;DHT22;8810;48.680;8.894;2022-10-17T03:18:04;10.60;99.90
17385;DHT22;8810;48.680;8.894;2022-10-17T03:20:32;10.60;99.90
17385;DHT22;8810;48.680;8.894;2022-10-17T03:22:59;10.60;99.90
17385;DHT22;8810;48.680;8.894;2022-10-17T03:25:26;10.60;99.90
17385;DHT22;8810;48.680;8.894;2022-10-17T03:27:53;10.50;99.90
17385;DHT22;8810;48.680;8.894;2022-10-17T03:30:20;10.50;99.90
17385;DHT22;8810;48.680;8.894;2022-10-17T03:32:47;10.50;99.90
17385;DHT22;8810;48.680;8.894;2022-10-17T03:35:13;10.40;99.90
17385;DHT22;8810;48.680;8.894;2022-10-17T03:37:42;10.40;99.90
17385;DHT22;8810;48.680;8.894;2022-10-17T03:40:09;10.40;99.90
17385;DHT22;8810;48.680;8.894;2022-10-17T03:42:36;10.40;99.90
17385;DHT22;8810;48.680;8.894;2022-10-17T03:45:03;10.40;99.90
17385;DHT22;8810;48.680;8.894;2022-10-17T03:47:30;10.50;99.90
17385;DHT22;8810;48.680;8.894;2022-10-17T03:49:57;10.50;99.90
17385;DHT22;8810;48.680;8.894;2022-10-17T03:52:24;10.50;99.90
17385;DHT22;8810;48.680;8.894;2022-10-17T03:54:52;10.40;99.90
17385;DHT22;8810;48.680;8.894;2022-10-17T03:57:19;10.50;99.90
17385;DHT22;8810;48.680;8.894;2022-10-17T03:59:46;10.40;99.90
17385;DHT22;8810;48.680;8.894;2022-10-17T04:02:12;10.40;99.90
17385;DHT22;8810;48.680;8.894;2022-10-17T04:04:39;10.40;99.90
17385;DHT22;8810;48.680;8.894;2022-10-17T04:07:06;10.40;99.90
17385;DHT22;8810;48.680;8.894;2022-10-17T04:09:33;10.40;99.90
17385;DHT22;8810;48.680;8.894;2022-10-17T04:12:01;10.40;99.90
17385;DHT22;8810;48.680;8.894;2022-10-17T04:14:28;10.40;99.90
17385;DHT22;8810;48.680;8.894;2022-10-17T04:16:54;10.40;99.90
17385;DHT22;8810;48.680;8.894;2022-10-17T04:19:21;10.40;99.90
17385;DHT22;8810;48.680;8.894;2022-10-17T04:21:50;10.40;99.90
17385;DHT22;8810;48.680;8.894;2022-10-17T04:24:17;10.40;99.90
17385;DHT22;8810;48.680;8.894;2022-10-17T04:26:44;10.30;99.90
17385;DHT22;8810;48.680;8.894;2022-10-17T04:29:12;10.30;99.90
17385;DHT22;8810;48.680;8.894;2022-10-17T04:31:39;10.20;99.90
17385;DHT22;8810;48.680;8.894;2022-10-17T04:34:06;10.20;99.90
17385;DHT22;8810;48.680;8.894;2022-10-17T04:36:35;10.10;99.90
17385;DHT22;8810;48.680;8.894;2022-10-17T04:39:02;10.10;99.90
17385;DHT22;8810;48.680;8.894;2022-10-17T04:41:30;10.10;99.90
17385;DHT22;8810;48.680;8.894;2022-10-17T04:43:57;10.10;99.90
17385;DHT22;8810;48.680;8.894;2022-10-17T04:46:25;10.10;99.90
17385;DHT22;8810;48.680;8.894;2022-10-17T04:48:53;10.10;99.90
17385;DHT22;8810;48.680;8.894;2022-10-17T04:51:19;10.10;99.90
17385;DHT22;8810;48.680;8.894;2022-10-17T04:53:46;10.00;99.90
17385;DHT22;8810;48.680;8.894;2022-10-17T04:56:15;10.00;99.90
17385;DHT22;8810;48.680;8.894;2022-10-17T04:58:43;10.00;99.90
17385;DHT22;8810;48.680;8.894;2022-10-17T05:01:12;10.00;99.90
17385;DHT22;8810;48.680;8.894;2022-10-17T05:03:40;10.00;99.90
17385;DHT22;8810;48.680;8.894;2022-10-17T05:06:09;10.00;99.90
17385;DHT22;8810;48.680;8.894;2022-10-17T05:08:36;10.00;99.90
17385;DHT22;8810;48.680;8.894;2022-10-17T05:11:03;10.00;99.90
17385;DHT22;8810;48.680;8.894;2022-10-17T05:13:31;10.00;99.90
17385;DHT22;8810;48.680;8.894;2022-10-17T05:15:59;10.00;99.90
17385;DHT22;8810;48.680;8.894;2022-10-17T05:18:26;10.00;99.90
17385;DHT22;8810;48.680;8.894;2022-10-17T05:20:54;10.00;99.90
17385;DHT22;8810;48.680;8.894;2022-10-17T05:23:21;10.00;99.90
17385;DHT22;8810;48.680;8.894;2022-10-17T05:25:53;10.10;99.90
17385;DHT22;8810;48.680;8.894;2022-10-17T05:28:20;10.00;99.90
17385;DHT22;8810;48.680;8.894;2022-10-17T05:30:46;10.00;99.90
17385;DHT22;8810;48.680;8.894;2022-10-17T05:33:13;10.00;99.90
17385;DHT22;8810;48.680;8.894;2022-10-17T05:35:40;10.00;99.90
17385;DHT22;8810;48.680;8.894;2022-10-17T05:38:08;10.00;99.90
17385;DHT22;8810;48.680;8.894;2022-10-17T05:40:35;10.00;99.90
17385;DHT22;8810;48.680;8.894;2022-10-17T05:43:03;10.00;99.90
17385;DHT22;8810;48.680;8.894;2022-10-17T05:45:30;10.10;99.90
17385;DHT22;8810;48.680;8.894;2022-10-17T05:47:57;10.10;99.90
17385;DHT22;8810;48.680;8.894;2022-10-17T05:50:24;10.10;99.90
17385;DHT22;8810;48.680;8.894;2022-10-17T05:52:52;10.10;99.90
17385;DHT22;8810;48.680;8.894;2022-10-17T05:55:21;10.10;99.90
17385;DHT22;8810;48.680;8.894;2022-10-17T05:57:48;10.10;99.90
17385;DHT22;8810;48.680;8.894;2022-10-17T06:00:15;10.10;99.90
17385;DHT22;8810;48.680;8.894;2022-10-17T06:02:42;10.10;99.90
17385;DHT22;8810;48.680;8.894;2022-10-17T06:05:10;10.10;99.90
17385;DHT22;8810;48.680;8.894;2022-10-17T06:07:37;10.00;99.90
17385;DHT22;8810;48.680;8.894;2022-10-17T06:10:05;10.10;99.90
17385;DHT22;8810;48.680;8.894;2022-10-17T06:12:33;10.00;99.90
17385;DHT22;8810;48.680;8.894;2022-10-17T06:15:00;10.00;99.90
17385;DHT22;8810;48.680;8.894;2022-10-17T06:17:27;10.00;99.90
17385;DHT22;8810;48.680;8.894;2022-10-17T06:19:55;10.10;99.90
17385;DHT22;8810;48.680;8.894;2022-10-17T06:22:21;10.10;99.90
17385;DHT22;8810;48.680;8.894;2022-10-17T06:24:48;10.10;99.90
17385;DHT22;8810;48.680;8.894;2022-10-17T06:27:17;10.10;99.90
17385;DHT22;8810;48.680;8.894;2022-10-17T06:29:45;10.10;99.90
17385;DHT22;8810;48.680;8.894;2022-10-17T06:32:12;10.20;99.90
17385;DHT22;8810;48.680;8.894;2022-10-17T06:34:39;10.30;99.90
17385;DHT22;8810;48.680;8.894;2022-10-17T06:37:06;10.30;99.90
17385;DHT22;8810;48.680;8.894;2022-10-17T06:39:33;10.30;99.90
17385;DHT22;8810;48.680;8.894;2022-10-17T06:42:00;10.40;99.90
17385;DHT22;8810;48.680;8.894;2022-10-17T06:44:28;10.50;99.90
17385;DHT22;8810;48.680;8.894;2022-10-17T06:46:58;10.50;99.90
17385;DHT22;8810;48.680;8.894;2022-10-17T06:49:25;10.70;99.90
17385;DHT22;8810;48.680;8.894;2022-10-17T06:51:52;10.90;99.90
17385;DHT22;8810;48.680;8.894;2022-10-17T06:54:19;11.10;99.90
17385;DHT22;8810;48.680;8.894;2022-10-17T06:56:46;11.50;99.90
17385;DHT22;8810;48.680;8.894;2022-10-17T06:59:13;11.90;99.90
17385;DHT22;8810;48.680;8.894;2022-10-17T07:01:41;12.30;99.90
17385;DHT22;8810;48.680;8.894;2022-10-17T07:04:09;12.70;99.90
17385;DHT22;8810;48.680;8.894;2022-10-17T07:06:37;13.00;99.90
17385;DHT22;8810;48.680;8.894;2022-10-17T07:09:04;13.40;99.90
17385;DHT22;8810;48.680;8.894;2022-10-17T07:11:32;13.70;99.90
17385;DHT22;8810;48.680;8.894;2022-10-17T07:14:00;14.00;99.90
17385;DHT22;8810;48.680;8.894;2022-10-17T07:16:27;14.30;99.90
17385;DHT22;8810;48.680;8.894;2022-10-17T07:18:54;14.60;99.90
17385;DHT22;8810;48.680;8.894;2022-10-17T07:21:23;14.90;99.90
17385;DHT22;8810;48.680;8.894;2022-10-17T07:23:50;15.10;99.90
17385;DHT22;8810;48.680;8.894;2022-10-17T07:26:17;15.30;99.90
17385;DHT22;8810;48.680;8.894;2022-10-17T07:28:46;15.60;99.90
17385;DHT22;8810;48.680;8.894;2022-10-17T07:31:15;15.90;99.90
17385;DHT22;8810;48.680;8.894;2022-10-17T07:33:42;16.10;99.90
17385;DHT22;8810;48.680;8.894;2022-10-17T07:36:09;16.30;99.90
17385;DHT22;8810;48.680;8.894;2022-10-17T07:38:38;16.50;99.90
17385;DHT22;8810;48.680;8.894;2022-10-17T07:41:06;16.80;99.90
17385;DHT22;8810;48.680;8.894;2022-10-17T07:43:33;16.90;99.90
17385;DHT22;8810;48.680;8.894;2022-10-17T07:46:01;17.10;99.90
17385;DHT22;8810;48.680;8.894;2022-10-17T07:48:29;17.30;99.90
17385;DHT22;8810;48.680;8.894;2022-10-17T07:50:56;17.50;99.90
17385;DHT22;8810;48.680;8.894;2022-10-17T07:53:23;17.60;99.90
17385;DHT22;8810;48.680;8.894;2022-10-17T07:55:51;17.80;99.90
17385;DHT22;8810;48.680;8.894;2022-10-17T07:58:18;18.10;99.90
17385;DHT22;8810;48.680;8.894;2022-10-17T08:00:45;18.20;99.90
17385;DHT22;8810;48.680;8.894;2022-10-17T08:03:13;18.30;99.90
17385;DHT22;8810;48.680;8.894;2022-10-17T08:05:40;18.50;99.90
17385;DHT22;8810;48.680;8.894;2022-10-17T08:08:07;18.60;99.90
17385;DHT22;8810;48.680;8.894;2022-10-17T08:10:34;18.70;99.90
17385;DHT22;8810;48.680;8.894;2022-10-17T08:13:02;18.90;99.90
17385;DHT22;8810;48.680;8.894;2022-10-17T08:15:29;19.10;99.90
17385;DHT22;8810;48.680;8.894;2022-10-17T08:17:56;19.20;99.90
17385;DHT22;8810;48.680;8.894;2022-10-17T08:20:23;19.40;99.90
17385;DHT22;8810;48.680;8.894;2022-10-17T08:22:51;19.50;99.90
17385;DHT22;8810;48.680;8.894;2022-10-17T08:25:18;19.60;99.90
17385;DHT22;8810;48.680;8.894;2022-10-17T08:27:45;19.80;99.90
17385;DHT22;8810;48.680;8.894;2022-10-17T08:30:14;20.00;99.90
17385;DHT22;8810;48.680;8.894;2022-10-17T08:32:41;20.30;99.90
17385;DHT22;8810;48.680;8.894;2022-10-17T08:35:08;20.70;99.90
17385;DHT22;8810;48.680;8.894;2022-10-17T08:37:35;21.00;99.90
17385;DHT22;8810;48.680;8.894;2022-10-17T08:40:03;21.30;99.90
17385;DHT22;8810;48.680;8.894;2022-10-17T08:42:42;21.70;99.90
17385;DHT22;8810;48.680;8.894;2022-10-17T08:45:19;21.90;99.90
17385;DHT22;8810;48.680;8.894;2022-10-17T08:47:49;22.00;99.90
17385;DHT22;8810;48.680;8.894;2022-10-17T08:50:24;22.10;99.90
17385;DHT22;8810;48.680;8.894;2022-10-17T08:52:56;22.10;99.90
17385;DHT22;8810;48.680;8.894;2022-10-17T08:55:30;21.90;99.90
17385;DHT22;8810;48.680;8.894;2022-10-17T08:57:58;22.00;99.90
17385;DHT22;8810;48.680;8.894;2022-10-17T09:00:27;22.10;99.90
17385;DHT22;8810;48.680;8.894;2022-10-17T09:03:05;22.20;99.90
17385;DHT22;8810;48.680;8.894;2022-10-17T09:05:45;22.30;99.90
17385;DHT22;8810;48.680;8.894;2022-10-17T09:08:32;22.40;99.90
17385;DHT22;8810;48.680;8.894;2022-10-17T09:11:13;22.60;99.90
17385;DHT22;8810;48.680;8.894;2022-10-17T09:13:54;22.80;99.90
17385;DHT22;8810;48.680;8.894;2022-10-17T09:16:45;23.00;99.90
17385;DHT22;8810;48.680;8.894;2022-10-17T09:19:18;22.80;99.90
17385;DHT22;8810;48.680;8.894;2022-10-17T09:21:52;22.70;99.90
17385;DHT22;8810;48.680;8.894;2022-10-17T09:24:27;22.60;99.90
17385;DHT22;8810;48.680;8.894;2022-10-17T09:26:57;22.40;99.90
17385;DHT22;8810;48.680;8.894;2022-10-17T09:29:25;22.00;99.90
17385;DHT22;8810;48.680;8.894;2022-10-17T09:31:57;22.00;99.90
17385;DHT22;8810;48.680;8.894;2022-10-17T09:34:28;22.00;99.90
17385;DHT22;8810;48.680;8.894;2022-10-17T09:36:57;21.90;99.90
17385;DHT22;8810;48.680;8.894;2022-10-17T09:39:24;22.10;99.90
17385;DHT22;8810;48.680;8.894;2022-10-17T09:41:57;22.30;99.90
17385;DHT22;8810;48.680;8.894;2022-10-17T09:44:29;22.40;99.90
17385;DHT22;8810;48.680;8.894;2022-10-17T09:47:05;22.40;99.90
17385;DHT22;8810;48.680;8.894;2022-10-17T09:49:37;22.40;99.90
17385;DHT22;8810;48.680;8.894;2022-10-17T09:52:08;22.30;99.90
17385;DHT22;8810;48.680;8.894;2022-10-17T09:54:42;22.20;99.90
17385;DHT22;8810;48.680;8.894;2022-10-17T09:57:11;22.20;99.90
17385;DHT22;8810;48.680;8.894;2022-10-17T09:59:40;22.30;99.90
17385;DHT22;8810;48.680;8.894;2022-10-17T10:02:15;22.30;99.90
17385;DHT22;8810;48.680;8.894;2022-10-17T10:04:55;22.40;99.90
17385;DHT22;8810;48.680;8.894;2022-10-17T10:07:23;22.60;99.90
17385;DHT22;8810;48.680;8.894;2022-10-17T10:09:50;22.70;99.90
17385;DHT22;8810;48.680;8.894;2022-10-17T10:12:20;23.00;99.90
17385;DHT22;8810;48.680;8.894;2022-10-17T10:14:47;23.10;99.90
17385;DHT22;8810;48.680;8.894;2022-10-17T10:17:35;23.00;99.90
17385;DHT22;8810;48.680;8.894;2022-10-17T10:20:25;23.00;99.90
17385;DHT22;8810;48.680;8.894;2022-10-17T10:23:14;23.00;99.90
17385;DHT22;8810;48.680;8.894;2022-10-17T10:25:53;23.20;99.90
17385;DHT22;8810;48.680;8.894;2022-10-17T10:28:24;23.30;99.90
17385;DHT22;8810;48.680;8.894;2022-10-17T10:30:52;23.60;99.90
17385;DHT22;8810;48.680;8.894;2022-10-17T10:33:21;23.90;99.90
17385;DHT22;8810;48.680;8.894;2022-10-17T10:35:55;23.80;99.90
17385;DHT22;8810;48.680;8.894;2022-10-17T10:38:23;23.90;99.90
17385;DHT22;8810;48.680;8.894;2022-10-17T10:40:52;24.10;99.90
17385;DHT22;8810;48.680;8.894;2022-10-17T10:43:23;24.30;99.90
17385;DHT22;8810;48.680;8.894;2022-10-17T10:45:52;24.60;99.90
17385;DHT22;8810;48.680;8.894;2022-10-17T10:48:21;24.80;99.90
17385;DHT22;8810;48.680;8.894;2022-10-17T10:50:49;25.00;99.90
17385;DHT22;8810;48.680;8.894;2022-10-17T10:53:31;25.20;99.90
17385;DHT22;8810;48.680;8.894;2022-10-17T10:56:03;25.60;99.90
17385;DHT22;8810;48.680;8.894;2022-10-17T10:58:39;25.80;99.90
17385;DHT22;8810;48.680;8.894;2022-10-17T11:01:25;26.00;99.90
17385;DHT22;8810;48.680;8.894;2022-10-17T11:04:09;26.20;99.90
17385;DHT22;8810;48.680;8.894;2022-10-17T11:06:42;26.40;99.90
17385;DHT22;8810;48.680;8.894;2022-10-17T11:09:18;26.50;99.90
17385;DHT22;8810;48.680;8.894;2022-10-17T11:11:51;26.50;99.90
17385;DHT22;8810;48.680;8.894;2022-10-17T11:14:26;26.60;99.90
17385;DHT22;8810;48.680;8.894;2022-10-17T11:16:59;26.80;99.90
17385;DHT22;8810;48.680;8.894;2022-10-17T11:19:34;26.80;99.90
17385;DHT22;8810;48.680;8.894;2022-10-17T11:22:07;26.90;99.90
17385;DHT22;8810;48.680;8.894;2022-10-17T11:24:41;26.90;99.90
17385;DHT22;8810;48.680;8.894;2022-10-17T11:27:10;26.90;99.90
17385;DHT22;8810;48.680;8.894;2022-10-17T11:29:39;26.90;99.90
17385;DHT22;8810;48.680;8.894;2022-10-17T11:32:12;27.10;99.90
17385;DHT22;8810;48.680;8.894;2022-10-17T11:34:43;27.10;99.90
17385;DHT22;8810;48.680;8.894;2022-10-17T11:37:15;27.20;99.90
17385;DHT22;8810;48.680;8.894;2022-10-17T11:39:47;27.30;99.90
17385;DHT22;8810;48.680;8.894;2022-10-17T11:42:20;27.60;99.90
17385;DHT22;8810;48.680;8.894;2022-10-17T11:44:54;27.80;99.90
17385;DHT22;8810;48.680;8.894;2022-10-17T11:47:30;28.00;99.90
17385;DHT22;8810;48.680;8.894;2022-10-17T11:50:02;28.20;99.90
17385;DHT22;8810;48.680;8.894;2022-10-17T11:52:36;28.30;99.90
17385;DHT22;8810;48.680;8.894;2022-10-17T11:55:12;28.40;99.20
17385;DHT22;8810;48.680;8.894;2022-10-17T11:57:48;28.50;99.90
17385;DHT22;8810;48.680;8.894;2022-10-17T12:00:47;28.60;99.80
17385;DHT22;8810;48.680;8.894;2022-10-17T12:03:27;28.60;96.60
17385;DHT22;8810;48.680;8.894;2022-10-17T12:05:58;28.50;96.10
17385;DHT22;8810;48.680;8.894;2022-10-17T12:08:33;28.50;96.80
17385;DHT22;8810;48.680;8.894;2022-10-17T12:11:12;28.50;94.40
17385;DHT22;8810;48.680;8.894;2022-10-17T12:13:51;28.50;93.90
17385;DHT22;8810;48.680;8.894;2022-10-17T12:16:49;28.20;92.30
17385;DHT22;8810;48.680;8.894;2022-10-17T12:19:34;27.90;91.70
17385;DHT22;8810;48.680;8.894;2022-10-17T12:22:16;27.60;92.30
17385;DHT22;8810;48.680;8.894;2022-10-17T12:24:51;27.70;92.50
17385;DHT22;8810;48.680;8.894;2022-10-17T12:27:38;27.80;92.70
17385;DHT22;8810;48.680;8.894;2022-10-17T12:30:17;27.90;92.10
17385;DHT22;8810;48.680;8.894;2022-10-17T12:33:02;28.00;92.20
17385;DHT22;8810;48.680;8.894;2022-10-17T12:35:31;28.20;91.70
17385;DHT22;8810;48.680;8.894;2022-10-17T12:38:26;28.10;91.30
17385;DHT22;8810;48.680;8.894;2022-10-17T12:41:01;28.00;91.40
17385;DHT22;8810;48.680;8.894;2022-10-17T12:43:49;28.10;91.10
17385;DHT22;8810;48.680;8.894;2022-10-17T12:46:41;28.10;91.00
17385;DHT22;8810;48.680;8.894;2022-10-17T12:52:20;28.30;90.50
17385;DHT22;8810;48.680;8.894;2022-10-17T12:54:55;28.30;90.40
17385;DHT22;8810;48.680;8.894;2022-10-17T12:57:29;28.40;90.70
17385;DHT22;8810;48.680;8.894;2022-10-17T12:59:59;28.40;90.70
17385;DHT22;8810;48.680;8.894;2022-10-17T13:02:28;28.40;90.40
17385;DHT22;8810;48.680;8.894;2022-10-17T13:05:02;28.50;90.10
17385;DHT22;8810;48.680;8.894;2022-10-17T13:07:33;28.50;90.20
17385;DHT22;8810;48.680;8.894;2022-10-17T13:10:00;28.40;90.00
17385;DHT22;8810;48.680;8.894;2022-10-17T13:12:31;28.40;90.10
17385;DHT22;8810;48.680;8.894;2022-10-17T13:15:03;28.40;90.00
17385;DHT22;8810;48.680;8.894;2022-10-17T13:17:31;28.30;90.10
17385;DHT22;8810;48.680;8.894;2022-10-17T13:19:59;28.30;90.10
17385;DHT22;8810;48.680;8.894;2022-10-17T13:22:28;28.20;90.10
17385;DHT22;8810;48.680;8.894;2022-10-17T13:25:05;28.10;90.40
17385;DHT22;8810;48.680;8.894;2022-10-17T13:27:34;28.10;90.40
17385;DHT22;8810;48.680;8.894;2022-10-17T13:30:22;28.10;90.40
17385;DHT22;8810;48.680;8.894;2022-10-17T13:32:49;28.10;90.80
17385;DHT22;8810;48.680;8.894;2022-10-17T13:35:22;28.10;91.30
17385;DHT22;8810;48.680;8.894;2022-10-17T13:37:51;28.20;90.50
17385;DHT22;8810;48.680;8.894;2022-10-17T13:40:19;28.10;91.80
17385;DHT22;8810;48.680;8.894;2022-10-17T13:42:48;28.10;90.90
17385;DHT22;8810;48.680;8.894;2022-10-17T13:45:21;28.00;90.40
17385;DHT22;8810;48.680;8.894;2022-10-17T13:47:50;27.90;90.80
17385;DHT22;8810;48.680;8.894;2022-10-17T13:50:22;27.80;90.90
17385;DHT22;8810;48.680;8.894;2022-10-17T13:53:06;27.80;90.90
17385;DHT22;8810;48.680;8.894;2022-10-17T13:55:33;27.80;90.30
17385;DHT22;8810;48.680;8.894;2022-10-17T13:58:09;27.70;90.50
17385;DHT22;8810;48.680;8.894;2022-10-17T14:00:41;27.70;90.30
17385;DHT22;8810;48.680;8.894;2022-10-17T14:03:08;27.70;90.40
17385;DHT22;8810;48.680;8.894;2022-10-17T14:06:04;27.70;90.90
17385;DHT22;8810;48.680;8.894;2022-10-17T14:08:33;27.60;90.90
17385;DHT22;8810;48.680;8.894;2022-10-17T14:11:00;27.50;90.50
17385;DHT22;8810;48.680;8.894;2022-10-17T14:13:30;27.50;91.10
17385;DHT22;8810;48.680;8.894;2022-10-17T14:16:02;27.50;91.30
17385;DHT22;8810;48.680;8.894;2022-10-17T14:18:31;27.50;91.30
17385;DHT22;8810;48.680;8.894;2022-10-17T14:20:59;27.60;91.80
17385;DHT22;8810;48.680;8.894;2022-10-17T14:23:29;27.60;91.80
17385;DHT22;8810;48.680;8.894;2022-10-17T14:26:09;27.70;91.00
17385;DHT22;8810;48.680;8.894;2022-10-17T14:28:36;27.60;91.00
17385;DHT22;8810;48.680;8.894;2022-10-17T14:31:29;27.50;90.80
17385;DHT22;8810;48.680;8.894;2022-10-17T14:33:58;27.40;90.40
17385;DHT22;8810;48.680;8.894;2022-10-17T14:36:35;27.30;91.10
17385;DHT22;8810;48.680;8.894;2022-10-17T14:39:03;27.20;90.90
17385;DHT22;8810;48.680;8.894;2022-10-17T14:41:33;27.10;91.00
17385;DHT22;8810;48.680;8.894;2022-10-17T14:44:03;26.90;90.90
17385;DHT22;8810;48.680;8.894;2022-10-17T14:46:33;26.90;91.40
17385;DHT22;8810;48.680;8.894;2022-10-17T14:49:04;26.90;91.30
17385;DHT22;8810;48.680;8.894;2022-10-17T14:51:31;26.80;91.40
17385;DHT22;8810;48.680;8.894;2022-10-17T14:54:01;26.70;91.30
17385;DHT22;8810;48.680;8.894;2022-10-17T14:56:35;26.70;91.90
17385;DHT22;8810;48.680;8.894;2022-10-17T14:59:02;26.50;91.70
17385;DHT22;8810;48.680;8.894;2022-10-17T15:01:32;26.50;91.70
17385;DHT22;8810;48.680;8.894;2022-10-17T15:03:59;26.40;91.90
17385;DHT22;8810;48.680;8.894;2022-10-17T15:06:27;26.30;92.10
17385;DHT22;8810;48.680;8.894;2022-10-17T15:08:54;26.30;92.40
17385;DHT22;8810;48.680;8.894;2022-10-17T15:11:21;26.20;92.10
17385;DHT22;8810;48.680;8.894;2022-10-17T15:13:48;26.20;92.10
17385;DHT22;8810;48.680;8.894;2022-10-17T15:16:18;26.10;92.80
17385;DHT22;8810;48.680;8.894;2022-10-17T15:18:46;26.00;93.00
17385;DHT22;8810;48.680;8.894;2022-10-17T15:21:15;25.90;93.40
17385;DHT22;8810;48.680;8.894;2022-10-17T15:23:42;25.80;93.90
17385;DHT22;8810;48.680;8.894;2022-10-17T15:26:13;25.70;94.00
17385;DHT22;8810;48.680;8.894;2022-10-17T15:28:41;25.60;94.20
17385;DHT22;8810;48.680;8.894;2022-10-17T15:31:10;25.50;94.30
17385;DHT22;8810;48.680;8.894;2022-10-17T15:33:38;25.40;94.80
17385;DHT22;8810;48.680;8.894;2022-10-17T15:36:20;25.30;95.20
17385;DHT22;8810;48.680;8.894;2022-10-17T15:38:47;25.30;95.80
17385;DHT22;8810;48.680;8.894;2022-10-17T15:41:14;25.20;95.90
17385;DHT22;8810;48.680;8.894;2022-10-17T15:43:41;25.10;95.70
17385;DHT22;8810;48.680;8.894;2022-10-17T15:46:11;25.00;96.20
17385;DHT22;8810;48.680;8.894;2022-10-17T15:48:39;24.90;96.60
17385;DHT22;8810;48.680;8.894;2022-10-17T15:51:07;24.80;97.00
17385;DHT22;8810;48.680;8.894;2022-10-17T15:53:34;24.60;97.60
17385;DHT22;8810;48.680;8.894;2022-10-17T15:56:02;24.50;97.70
17385;DHT22;8810;48.680;8.894;2022-10-17T15:58:34;24.30;97.90
17385;DHT22;8810;48.680;8.894;2022-10-17T16:01:01;24.20;98.40
17385;DHT22;8810;48.680;8.894;2022-10-17T16:03:29;24.00;98.70
17385;DHT22;8810;48.680;8.894;2022-10-17T16:05:56;23.80;98.90
17385;DHT22;8810;48.680;8.894;2022-10-17T16:08:24;23.70;99.80
17385;DHT22;8810;48.680;8.894;2022-10-17T16:10:51;23.50;99.90